createdAt,value
2023-09-05T00:03:19.918Z,102005.81
2023-09-05T00:08:28.040Z,102011.97
2023-09-05T00:13:34.450Z,102012.84
2023-09-05T00:18:40.756Z,102003.25
2023-09-05T00:23:48.981Z,102003.28
2023-09-05T00:28:55.413Z,102012.97
2023-09-05T00:34:01.624Z,102006.88
2023-09-05T00:39:10.588Z,102010.44
2023-09-05T00:44:16.733Z,102014.91
2023-09-05T00:49:28.958Z,102011.41
2023-09-05T00:54:38.568Z,102000.97
2023-09-05T00:59:45.905Z,101994.22
2023-09-05T01:04:52.570Z,101990.75
2023-09-05T01:10:07.934Z,101988.13
2023-09-05T01:15:14.279Z,101982.81
2023-09-05T01:20:21.404Z,101979.38
2023-09-05T01:25:30.543Z,101976.75
2023-09-05T01:30:37.390Z,101982.09
2023-09-05T01:35:43.625Z,101978.75
2023-09-05T01:40:51.402Z,101984.00
2023-09-05T01:45:57.741Z,101984.91
2023-09-05T01:51:05.191Z,101975.34
2023-09-05T01:56:13.034Z,101976.25
2023-09-05T02:01:19.963Z,101974.56
2023-09-05T02:06:26.431Z,101980.75
2023-09-05T02:11:34.223Z,101981.63
2023-09-05T02:16:40.653Z,101982.47
2023-09-05T02:21:47.381Z,101979.91
2023-09-05T02:26:57.575Z,101979.97
2023-09-05T02:32:03.881Z,101971.28
2023-09-05T02:37:10.266Z,101966.16
2023-09-05T02:42:18.201Z,101967.00
2023-09-05T02:47:24.776Z,101970.56
2023-09-05T02:52:45.452Z,101969.69
2023-09-05T02:57:55.712Z,101975.03
2023-09-05T03:03:02.345Z,101986.34
2023-09-05T03:08:08.821Z,101981.16
2023-09-05T03:13:17.152Z,101984.63
2023-09-05T03:18:24.040Z,101983.78
2023-09-05T03:23:30.680Z,101982.88
2023-09-05T03:28:46.982Z,101980.28
2023-09-05T03:33:57.588Z,101989.06
2023-09-05T03:39:04.496Z,101995.19
2023-09-05T03:44:12.606Z,101996.06
2023-09-05T03:49:19.402Z,102001.38
2023-09-05T03:54:25.675Z,101997.94
2023-09-05T03:59:33.789Z,102003.19
2023-09-05T04:04:40.905Z,101997.97
2023-09-05T04:09:50.852Z,102016.31
2023-09-05T04:14:58.892Z,102017.25
2023-09-05T04:20:08.109Z,102012.84
2023-09-05T04:25:16.731Z,102018.13
2023-09-05T04:30:24.517Z,102019.84
2023-09-05T04:35:31.030Z,102022.47
2023-09-05T04:40:38.413Z,102017.25
2023-09-05T04:45:56.232Z,102024.22
2023-09-05T04:51:05.667Z,102015.50
2023-09-05T04:56:12.582Z,102017.25
2023-09-05T05:01:20.515Z,102026.81
2023-09-05T05:06:30.452Z,102019.84
2023-09-05T05:11:37.089Z,102023.31
2023-09-05T05:16:45.343Z,102024.16
2023-09-05T05:21:52.191Z,102022.41
2023-09-05T05:26:58.710Z,102009.31
2023-09-05T05:32:07.491Z,102008.38
2023-09-05T05:37:13.564Z,102004.06
2023-09-05T05:42:20.225Z,102000.56
2023-09-05T05:47:28.570Z,102009.28
2023-09-05T05:52:35.594Z,102006.59
2023-09-05T05:57:42.060Z,102001.28
2023-09-05T06:02:49.881Z,102003.84
2023-09-05T06:07:57.739Z,102006.41
2023-09-05T06:13:04.749Z,102008.09
2023-09-05T06:18:13.138Z,102008.88
2023-09-05T06:23:19.978Z,101999.16
2023-09-05T06:28:27.485Z,101998.22
2023-09-05T06:33:35.993Z,102004.28
2023-09-05T06:38:43.355Z,101992.72
2023-09-05T06:43:50.209Z,101993.53
2023-09-05T06:48:58.416Z,101997.72
2023-09-05T06:54:05.256Z,102001.13
2023-09-05T06:59:18.819Z,102000.09
2023-09-05T07:04:28.907Z,101996.41
2023-09-05T07:09:35.669Z,101992.69
2023-09-05T07:14:44.020Z,101998.59
2023-09-05T07:19:52.973Z,102001.88
2023-09-05T07:24:59.352Z,102001.75
2023-09-05T07:30:06.985Z,102011.09
2023-09-05T07:35:15.112Z,102010.09
2023-09-05T07:40:24.204Z,102006.41
2023-09-05T07:45:30.877Z,102006.81
2023-09-05T07:50:39.636Z,102006.59
2023-09-05T07:55:46.401Z,102004.00
2023-09-05T08:00:54.592Z,102009.69
2023-09-05T08:06:02.761Z,102022.34
2023-09-05T08:11:09.539Z,102014.25
2023-09-05T08:16:16.893Z,102005.31
2023-09-05T08:21:28.053Z,102006.81
2023-09-05T08:26:36.048Z,102009.13
2023-09-05T08:31:42.735Z,102012.88
2023-09-05T08:36:50.747Z,102009.19
2023-09-05T08:41:57.806Z,101997.50
2023-09-05T08:47:04.556Z,101998.13
2023-09-05T08:52:18.246Z,101997.28
2023-09-05T08:57:29.638Z,102001.06
2023-09-05T09:02:37.864Z,101987.31
2023-09-05T09:07:46.377Z,101984.56
2023-09-05T09:12:56.952Z,101984.97
2023-09-05T09:18:04.634Z,101987.28
2023-09-05T09:23:12.790Z,101987.97
2023-09-05T09:28:28.318Z,101979.69
2023-09-05T09:33:36.952Z,101977.66
2023-09-05T09:38:45.502Z,101972.25
2023-09-05T09:43:58.169Z,101971.72
2023-09-05T09:49:08.541Z,101974.75
2023-09-05T09:54:18.904Z,101962.03
2023-09-05T09:59:28.691Z,101960.75
2023-09-05T10:04:37.719Z,101953.25
2023-09-05T10:09:47.592Z,101938.28
2023-09-05T10:14:57.415Z,101939.47
2023-09-05T10:20:09.370Z,101931.06
2023-09-05T10:25:19.554Z,101924.44
2023-09-05T10:30:26.282Z,101917.22
2023-09-05T10:35:34.994Z,101923.81
2023-09-05T10:40:43.322Z,101909.94
2023-09-05T10:45:58.263Z,101905.03
2023-09-05T10:51:13.553Z,101902.94
2023-09-05T10:56:45.449Z,101900.88
2023-09-05T11:01:54.404Z,101901.91
2023-09-05T11:07:11.005Z,101894.38
2023-09-05T11:12:21.513Z,101887.09
2023-09-05T11:17:30.102Z,101889.81
2023-09-05T11:22:36.231Z,101879.22
2023-09-05T11:27:43.732Z,101866.41
2023-09-05T11:32:51.370Z,101863.09
2023-09-05T11:38:04.229Z,101860.66
2023-09-05T11:43:15.435Z,101845.34
2023-09-05T11:48:24.803Z,101840.25
2023-09-05T11:53:31.626Z,101836.81
2023-09-05T11:58:39.897Z,101830.16
2023-09-05T12:03:46.356Z,101826.22
2023-09-05T12:08:54.448Z,101819.03
2023-09-05T12:14:02.555Z,101801.06
2023-09-05T12:19:09.926Z,101795.59
2023-09-05T12:24:24.739Z,101789.72
2023-09-05T12:29:50.944Z,101793.22
2023-09-05T12:34:57.739Z,101789.25
2023-09-05T12:40:06.860Z,101786.06
2023-09-05T12:45:16.396Z,101782.41
2023-09-05T12:50:31.572Z,101767.06
2023-09-05T12:55:39.106Z,101763.69
2023-09-05T13:00:48.642Z,101747.78
2023-09-05T13:05:55.132Z,101749.75
2023-09-05T13:11:01.399Z,101746.59
2023-09-05T13:16:09.378Z,101748.03
2023-09-05T13:21:16.930Z,101733.53
2023-09-05T13:26:23.357Z,101736.13
2023-09-05T13:31:31.862Z,101738.00
2023-09-05T13:36:39.329Z,101724.75
2023-09-05T13:41:45.989Z,101727.66
2023-09-05T13:46:54.360Z,101712.72
2023-09-05T13:52:01.803Z,101709.34
2023-09-05T13:57:09.073Z,101702.88
2023-09-05T14:02:17.030Z,101711.34
2023-09-05T14:07:23.454Z,101708.03
2023-09-05T14:12:30.358Z,101700.00
2023-09-05T14:17:38.718Z,101682.31
2023-09-05T14:22:45.427Z,101677.06
2023-09-05T14:27:52.954Z,101675.00
2023-09-05T14:33:02.025Z,101675.66
2023-09-05T14:38:08.666Z,101671.50
2023-09-05T14:43:17.055Z,101669.69
2023-09-05T14:48:26.019Z,101661.88
2023-09-05T14:53:33.562Z,101665.38
2023-09-05T14:58:41.470Z,101671.72
2023-09-05T15:03:49.918Z,101665.72
2023-09-05T15:08:57.029Z,101670.91
2023-09-05T15:14:03.703Z,101657.81
2023-09-05T15:19:11.986Z,101652.44
2023-09-05T15:24:18.621Z,101661.31
2023-09-05T15:29:25.275Z,101653.34
2023-09-05T15:34:35.521Z,101644.78
2023-09-05T15:39:42.960Z,101652.06
2023-09-05T15:44:49.694Z,101650.50
2023-09-05T15:49:57.892Z,101650.63
2023-09-05T15:55:04.298Z,101647.41
2023-09-05T16:00:12.568Z,101644.09
2023-09-05T16:05:20.893Z,101627.50
2023-09-05T16:10:28.441Z,101626.84
2023-09-05T16:15:35.019Z,101630.63
2023-09-05T16:20:55.364Z,101629.91
2023-09-05T16:26:03.336Z,101622.41
2023-09-05T16:31:11.443Z,101622.53
2023-09-05T16:36:23.079Z,101618.47
2023-09-05T16:41:31.508Z,101622.22
2023-09-05T16:46:38.697Z,101628.72
2023-09-05T16:51:47.283Z,101624.72
2023-09-05T16:56:54.364Z,101625.06
2023-09-05T17:02:02.599Z,101626.94
2023-09-05T17:07:11.393Z,101620.16
2023-09-05T17:12:18.372Z,101616.84
2023-09-05T17:17:26.061Z,101619.75
2023-09-05T17:22:34.865Z,101634.06
2023-09-05T17:27:45.892Z,101630.91
2023-09-05T17:32:53.767Z,101635.69
2023-09-05T17:38:02.726Z,101647.34
2023-09-05T17:43:10.037Z,101641.53
2023-09-05T17:48:20.221Z,101637.44
2023-09-05T17:53:31.948Z,101643.69
2023-09-05T17:58:41.026Z,101642.22
2023-09-05T18:03:49.219Z,101648.69
2023-09-05T18:09:01.915Z,101649.78
2023-09-05T18:14:13.919Z,101658.88
2023-09-05T18:19:22.700Z,101649.47
2023-09-05T18:24:34.017Z,101651.56
2023-09-05T18:29:48.139Z,101659.63
2023-09-05T18:35:02.043Z,101647.63
2023-09-05T18:40:17.931Z,101651.53
2023-09-05T18:45:31.897Z,101646.63
2023-09-05T18:50:42.594Z,101641.78
2023-09-05T18:55:53.959Z,101644.66
2023-09-05T19:01:04.003Z,101630.81
2023-09-05T19:06:15.414Z,101635.28
2023-09-05T19:11:26.750Z,101636.44
2023-09-05T19:16:34.613Z,101639.47
2023-09-05T19:21:43.440Z,101645.09
2023-09-05T19:26:56.687Z,101652.25
2023-09-05T19:32:06.031Z,101647.25
2023-09-05T19:37:17.198Z,101646.53
2023-09-05T19:42:28.197Z,101647.63
2023-09-05T19:47:39.049Z,101648.81
2023-09-05T19:52:47.886Z,101641.03
2023-09-05T19:57:59.268Z,101641.25
2023-09-05T20:03:10.387Z,101639.69
2023-09-05T20:08:19.156Z,101643.38
2023-09-05T20:13:29.721Z,101633.19
2023-09-05T20:18:39.432Z,101640.34
2023-09-05T20:23:47.537Z,101643.97
2023-09-05T20:28:57.289Z,101644.03
2023-09-05T20:34:05.663Z,101642.44
2023-09-05T20:39:13.425Z,101631.22
2023-09-05T20:44:25.286Z,101632.13
2023-09-05T20:49:34.401Z,101633.88
2023-09-05T20:54:42.617Z,101641.56
2023-09-05T20:59:54.089Z,101648.56
2023-09-05T21:05:00.979Z,101641.50
2023-09-05T21:10:10.402Z,101638.97
2023-09-05T21:15:18.837Z,101631.13
2023-09-05T21:20:25.212Z,101626.72
2023-09-05T21:25:31.926Z,101635.56
2023-09-05T21:30:40.145Z,101638.44
2023-09-05T21:35:47.207Z,101637.88
2023-09-05T21:40:53.884Z,101652.06
2023-09-05T21:46:02.070Z,101647.97
2023-09-05T21:51:08.911Z,101653.31
2023-09-05T21:56:16.755Z,101659.59
2023-09-05T22:01:24.944Z,101668.38
2023-09-05T22:06:31.591Z,101666.84
2023-09-05T22:11:38.411Z,101662.53
2023-09-05T22:16:46.706Z,101665.28
2023-09-05T22:21:53.335Z,101667.38
2023-09-05T22:27:01.771Z,101652.44
2023-09-05T22:32:09.879Z,101648.06
2023-09-05T22:37:16.218Z,101649.03
2023-09-05T22:42:23.020Z,101645.63
2023-09-05T22:47:31.206Z,101656.44
2023-09-05T22:52:38.170Z,101657.50
2023-09-05T22:57:44.819Z,101654.16
2023-09-05T23:02:53.175Z,101659.44
2023-09-05T23:08:00.082Z,101657.00
2023-09-05T23:13:06.889Z,101656.16
2023-09-05T23:18:14.842Z,101655.31
2023-09-05T23:23:22.051Z,101659.16
2023-09-05T23:28:29.871Z,101660.06
2023-09-05T23:33:38.340Z,101648.69
2023-09-05T23:38:45.286Z,101643.44
2023-09-05T23:43:51.859Z,101631.31
2023-09-05T23:49:01.953Z,101636.66
2023-09-05T23:54:08.962Z,101638.69
2023-09-05T23:59:16.857Z,101637.00
